Time;durP1;ratioP1;P1;durP2;ratioP2;P2;SDS_P1;SDS_P2;PMS_P1;PMS_P2;Temp;Humidity;BMP_temperature;BMP_pressure;BME280_temperature;BME280_humidity;BME280_pressure;Samples;Min_cycle;Max_cycle;Signal;HPM_P1;HPM_P2
2023/05/18 00:02:20;;;;;;;11.75;4.15;;;;;;;;;;4984754;28;20121;-50
2023/05/18 00:04:48;;;;;;;11.47;3.37;;;;;;;;;;5003824;28;20042;-51
2023/05/18 00:07:16;;;;;;;10.55;3.63;;;;;;;;;;4987519;28;20045;-52
2023/05/18 00:09:48;;;;;;;10.95;4.18;;;;;;;;;;5003109;28;20049;-53
2023/05/18 00:12:18;;;;;;;10.50;3.55;;;;;;;;;;4981405;28;20060;-52
2023/05/18 00:14:47;;;;;;;10.88;3.15;;;;;;;;;;4966822;28;20049;-51
2023/05/18 00:17:14;;;;;;;10.27;3.30;;;;;;;;;;5011052;28;20045;-53
2023/05/18 00:19:45;;;;;;;9.57;3.72;;;;;;;;;;4976780;28;20046;-51
2023/05/18 00:22:17;;;;;;;9.05;4.22;;;;;;;;;;4997578;28;20053;-53
2023/05/18 00:24:46;;;;;;;10.45;3.95;;;;;;;;;;4967475;28;20059;-54
2023/05/18 00:27:14;;;;;;;12.93;3.85;;;;;;;;;;4994779;28;20761;-49
2023/05/18 00:29:43;;;;;;;11.53;3.90;;;;;;;;;;4987586;28;20108;-47
2023/05/18 00:32:12;;;;;;;8.13;3.28;;;;;;;;;;4999707;28;20057;-51
2023/05/18 00:34:40;;;;;;;14.05;4.05;;;;;;;;;;4981137;28;20056;-50
2023/05/18 00:37:08;;;;;;;10.82;3.90;;;;;;;;;;4982507;28;20042;-51
2023/05/18 00:39:36;;;;;;;10.07;3.60;;;;;;;;;;4982661;28;20056;-55
2023/05/18 00:42:04;;;;;;;8.97;3.27;;;;;;;;;;4998394;28;20068;-52
2023/05/18 00:44:32;;;;;;;9.80;3.58;;;;;;;;;;4996794;28;20129;-53
2023/05/18 00:47:02;;;;;;;9.07;3.72;;;;;;;;;;4983084;28;20045;-52
2023/05/18 00:49:30;;;;;;;12.05;3.90;;;;;;;;;;4980498;28;20092;-52
2023/05/18 00:51:57;;;;;;;9.65;4.22;;;;;;;;;;5001582;28;20091;-51
2023/05/18 00:54:26;;;;;;;10.57;4.07;;;;;;;;;;4981943;28;20041;-54
2023/05/18 00:56:55;;;;;;;11.02;4.10;;;;;;;;;;4993610;28;20143;-52
2023/05/18 00:59:23;;;;;;;11.77;3.97;;;;;;;;;;4995228;28;20088;-51
2023/05/18 01:01:52;;;;;;;12.70;3.90;;;;;;;;;;4984827;28;20412;-52
2023/05/18 01:04:23;;;;;;;9.13;3.63;;;;;;;;;;4993724;28;20275;-52
2023/05/18 01:06:55;;;;;;;9.40;3.13;;;;;;;;;;4979438;28;20659;-51
2023/05/18 01:09:24;;;;;;;8.32;3.65;;;;;;;;;;4993367;28;20045;-52
2023/05/18 01:11:56;;;;;;;9.45;3.78;;;;;;;;;;4991384;28;20037;-52
2023/05/18 01:14:26;;;;;;;8.38;3.50;;;;;;;;;;4999526;28;20492;-52
2023/05/18 01:17:02;;;;;;;12.60;3.20;;;;;;;;;;5002069;28;20080;-48
2023/05/18 01:19:43;;;;;;;8.57;3.10;;;;;;;;;;4989486;28;20525;-50
2023/05/18 01:22:20;;;;;;;9.95;3.05;;;;;;;;;;5001613;28;20500;-53
2023/05/18 01:24:52;;;;;;;10.43;3.22;;;;;;;;;;4965974;28;20041;-49
2023/05/18 01:27:23;;;;;;;11.98;4.25;;;;;;;;;;5000369;28;20476;-50
2023/05/18 01:29:51;;;;;;;9.40;3.33;;;;;;;;;;5001316;28;20052;-48
2023/05/18 01:32:20;;;;;;;11.33;3.90;;;;;;;;;;4989108;28;20045;-52
2023/05/18 01:34:50;;;;;;;13.55;3.92;;;;;;;;;;4982263;28;20565;-52
2023/05/18 01:37:18;;;;;;;11.75;3.47;;;;;;;;;;4987849;28;20041;-51
2023/05/18 01:39:46;;;;;;;8.73;3.08;;;;;;;;;;4985825;28;20056;-52
2023/05/18 01:42:19;;;;;;;8.23;3.05;;;;;;;;;;4990517;28;20041;-52
2023/05/18 01:44:51;;;;;;;12.83;3.70;;;;;;;;;;4990209;28;20594;-53
2023/05/18 01:47:19;;;;;;;11.07;3.67;;;;;;;;;;4995784;28;20042;-52
2023/05/18 01:49:51;;;;;;;9.35;3.67;;;;;;;;;;4973030;28;20139;-54
2023/05/18 01:52:20;;;;;;;11.18;3.90;;;;;;;;;;5002610;28;20045;-52
2023/05/18 01:54:52;;;;;;;12.98;3.88;;;;;;;;;;4996020;28;20038;-51
2023/05/18 01:57:21;;;;;;;10.47;3.27;;;;;;;;;;5001215;28;20037;-51
2023/05/18 01:59:50;;;;;;;10.15;4.00;;;;;;;;;;5008315;28;20041;-52
2023/05/18 02:02:19;;;;;;;10.07;3.22;;;;;;;;;;4983831;28;20600;-50
2023/05/18 02:04:48;;;;;;;9.70;3.33;;;;;;;;;;4992520;28;20046;-50
2023/05/18 02:07:15;;;;;;;9.55;3.95;;;;;;;;;;5003553;28;20589;-50
2023/05/18 02:09:44;;;;;;;9.30;3.73;;;;;;;;;;4990403;28;20085;-53
2023/05/18 02:12:12;;;;;;;8.95;3.08;;;;;;;;;;4987015;28;20042;-50
2023/05/18 02:14:40;;;;;;;8.63;3.85;;;;;;;;;;4996823;28;20042;-53
2023/05/18 02:17:10;;;;;;;8.93;3.55;;;;;;;;;;4984144;28;20042;-51
2023/05/18 02:19:38;;;;;;;9.73;3.50;;;;;;;;;;4998412;28;20058;-47
2023/05/18 02:22:06;;;;;;;10.80;4.17;;;;;;;;;;4988347;28;20064;-53
2023/05/18 02:24:37;;;;;;;10.65;3.53;;;;;;;;;;4988079;28;21228;-52
2023/05/18 02:27:05;;;;;;;9.02;3.45;;;;;;;;;;4996339;28;20048;-51
2023/05/18 02:29:33;;;;;;;14.30;3.65;;;;;;;;;;4987428;28;20041;-54
2023/05/18 02:32:01;;;;;;;10.02;4.00;;;;;;;;;;4996604;28;20050;-48
2023/05/18 02:34:31;;;;;;;12.37;3.83;;;;;;;;;;4984969;28;20064;-53
2023/05/18 02:37:02;;;;;;;9.15;3.75;;;;;;;;;;4999736;28;20034;-51
2023/05/18 02:39:32;;;;;;;12.48;3.90;;;;;;;;;;4995614;28;20392;-52
2023/05/18 02:42:00;;;;;;;10.18;3.85;;;;;;;;;;5001697;28;20451;-50
2023/05/18 02:44:28;;;;;;;9.85;3.55;;;;;;;;;;4996210;28;20402;-51
2023/05/18 02:46:56;;;;;;;9.57;3.57;;;;;;;;;;4996727;28;20060;-49
2023/05/18 02:49:23;;;;;;;13.65;3.90;;;;;;;;;;4980804;28;20030;-51
2023/05/18 02:51:52;;;;;;;11.80;4.18;;;;;;;;;;5005701;28;20049;-53
2023/05/18 02:54:21;;;;;;;10.45;3.30;;;;;;;;;;4989298;28;20099;-48
2023/05/18 02:56:49;;;;;;;8.82;3.63;;;;;;;;;;4991857;28;20034;-51
2023/05/18 02:59:16;;;;;;;10.07;3.53;;;;;;;;;;5005029;28;20389;-49
2023/05/18 03:01:46;;;;;;;9.93;3.80;;;;;;;;;;4940236;28;20037;-52
2023/05/18 03:04:15;;;;;;;12.13;3.75;;;;;;;;;;5004816;28;20043;-53
2023/05/18 03:06:45;;;;;;;10.52;4.00;;;;;;;;;;4988486;28;20049;-52
2023/05/18 03:09:15;;;;;;;7.75;3.40;;;;;;;;;;5001023;28;20053;-50
2023/05/18 03:11:43;;;;;;;9.47;3.20;;;;;;;;;;4971686;28;20045;-55
2023/05/18 03:14:11;;;;;;;10.55;3.53;;;;;;;;;;5009620;28;20048;-50
2023/05/18 03:16:39;;;;;;;11.05;3.83;;;;;;;;;;4957297;28;20034;-51
2023/05/18 03:19:06;;;;;;;9.90;3.63;;;;;;;;;;5003362;28;20295;-48
2023/05/18 03:21:34;;;;;;;11.32;4.20;;;;;;;;;;4993916;28;20053;-47
2023/05/18 03:24:04;;;;;;;11.07;3.90;;;;;;;;;;4992250;28;20042;-53
2023/05/18 03:26:33;;;;;;;10.73;4.15;;;;;;;;;;4997900;28;20072;-52
2023/05/18 03:29:01;;;;;;;9.75;3.95;;;;;;;;;;4986955;28;20046;-49
2023/05/18 03:31:29;;;;;;;13.15;4.07;;;;;;;;;;4994571;28;20547;-52
2023/05/18 03:33:57;;;;;;;10.23;3.75;;;;;;;;;;5002336;28;20496;-49
2023/05/18 03:36:26;;;;;;;9.70;3.53;;;;;;;;;;4984648;28;20037;-49
2023/05/18 03:38:55;;;;;;;10.35;3.85;;;;;;;;;;4993902;28;20064;-52
2023/05/18 03:41:22;;;;;;;11.07;4.05;;;;;;;;;;4991182;28;20042;-50
2023/05/18 03:43:51;;;;;;;9.93;3.97;;;;;;;;;;4991918;28;20046;-51
2023/05/18 03:46:20;;;;;;;9.18;3.67;;;;;;;;;;4993292;28;20052;-50
2023/05/18 03:48:47;;;;;;;9.87;3.80;;;;;;;;;;4982504;28;20088;-51
2023/05/18 03:51:15;;;;;;;10.75;3.90;;;;;;;;;;5005519;28;20099;-53
2023/05/18 03:53:43;;;;;;;12.90;3.85;;;;;;;;;;4987184;28;20499;-50
2023/05/18 03:56:12;;;;;;;13.73;4.28;;;;;;;;;;4995821;28;20042;-51
2023/05/18 03:58:41;;;;;;;10.80;4.00;;;;;;;;;;4987137;28;20042;-53
2023/05/18 04:01:11;;;;;;;12.77;4.37;;;;;;;;;;4999018;28;20128;-48
2023/05/18 04:03:39;;;;;;;11.70;3.53;;;;;;;;;;4981140;28;20119;-48
2023/05/18 04:06:09;;;;;;;11.40;4.60;;;;;;;;;;5003965;28;20137;-52
2023/05/18 04:08:37;;;;;;;10.85;4.10;;;;;;;;;;4984185;28;20072;-51
2023/05/18 04:11:05;;;;;;;11.45;4.20;;;;;;;;;;4998979;28;20029;-49
2023/05/18 04:13:33;;;;;;;9.40;3.50;;;;;;;;;;4990140;28;20034;-49
2023/05/18 04:16:02;;;;;;;9.35;3.60;;;;;;;;;;4988757;28;20118;-52
2023/05/18 04:18:31;;;;;;;10.85;3.22;;;;;;;;;;4996152;28;20037;-50
2023/05/18 04:21:00;;;;;;;11.57;4.15;;;;;;;;;;4994121;28;20060;-52
2023/05/18 04:23:28;;;;;;;12.88;4.43;;;;;;;;;;5006039;28;20037;-50
2023/05/18 04:25:56;;;;;;;10.87;3.70;;;;;;;;;;4976961;28;20125;-52
2023/05/18 04:28:24;;;;;;;10.18;3.75;;;;;;;;;;5003167;28;20065;-53
2023/05/18 04:30:52;;;;;;;12.18;4.30;;;;;;;;;;4990402;28;20504;-53
2023/05/18 04:33:19;;;;;;;12.30;4.00;;;;;;;;;;5001392;28;20041;-50
2023/05/18 04:35:48;;;;;;;11.63;4.38;;;;;;;;;;4982778;28;20671;-51
2023/05/18 04:38:16;;;;;;;10.60;3.33;;;;;;;;;;4986453;28;20050;-54
2023/05/18 04:40:44;;;;;;;10.52;4.15;;;;;;;;;;4990615;28;20045;-51
2023/05/18 04:43:12;;;;;;;10.63;3.78;;;;;;;;;;4994769;28;20121;-49
2023/05/18 04:45:41;;;;;;;11.50;3.85;;;;;;;;;;4966213;28;20629;-50
2023/05/18 04:48:11;;;;;;;9.80;4.07;;;;;;;;;;4993174;28;20108;-49
2023/05/18 04:50:39;;;;;;;10.23;4.07;;;;;;;;;;4994855;28;20041;-52
2023/05/18 04:53:11;;;;;;;14.30;4.10;;;;;;;;;;4989783;28;20061;-49
2023/05/18 04:55:39;;;;;;;10.45;4.13;;;;;;;;;;4989001;28;20046;-50
2023/05/18 04:58:09;;;;;;;11.63;4.22;;;;;;;;;;4998800;28;20370;-50
2023/05/18 05:00:37;;;;;;;11.15;4.05;;;;;;;;;;4981962;28;20046;-51
2023/05/18 05:03:05;;;;;;;12.20;3.80;;;;;;;;;;4992084;28;20042;-50
2023/05/18 05:05:33;;;;;;;11.43;3.67;;;;;;;;;;4992801;28;20041;-52
2023/05/18 05:08:03;;;;;;;12.20;4.22;;;;;;;;;;5002814;28;20078;-53
2023/05/18 05:10:33;;;;;;;10.65;4.18;;;;;;;;;;4984337;28;20404;-53
2023/05/18 05:13:01;;;;;;;11.10;3.90;;;;;;;;;;4990968;28;20484;-53
2023/05/18 05:15:29;;;;;;;10.73;4.17;;;;;;;;;;4990232;28;20812;-52
2023/05/18 05:17:57;;;;;;;10.02;4.60;;;;;;;;;;4999019;28;20550;-51
2023/05/18 05:20:25;;;;;;;10.27;3.60;;;;;;;;;;4990528;28;20045;-49
2023/05/18 05:22:54;;;;;;;10.88;4.43;;;;;;;;;;4933108;28;20510;-51
2023/05/18 05:25:21;;;;;;;12.13;4.05;;;;;;;;;;4968607;28;20058;-52
2023/05/18 05:27:50;;;;;;;10.37;4.90;;;;;;;;;;4953076;28;20267;-49
2023/05/18 05:30:19;;;;;;;12.25;4.15;;;;;;;;;;4957637;28;20477;-50
2023/05/18 05:32:47;;;;;;;17.63;5.15;;;;;;;;;;4952764;28;20066;-54
2023/05/18 05:35:15;;;;;;;13.45;3.55;;;;;;;;;;4962924;28;20086;-50
2023/05/18 05:37:45;;;;;;;15.80;5.00;;;;;;;;;;4957485;28;20727;-48
2023/05/18 05:40:13;;;;;;;14.10;4.50;;;;;;;;;;4948061;28;20042;-53
2023/05/18 05:42:42;;;;;;;15.15;4.97;;;;;;;;;;4960426;28;20039;-48
2023/05/18 05:45:13;;;;;;;14.02;5.68;;;;;;;;;;4956548;28;20061;-51
2023/05/18 05:47:40;;;;;;;12.57;4.90;;;;;;;;;;4944743;28;20039;-49
2023/05/18 05:50:08;;;;;;;13.23;4.65;;;;;;;;;;4951372;28;21402;-52
2023/05/18 05:52:36;;;;;;;11.07;4.50;;;;;;;;;;4952731;28;20481;-48
2023/05/18 05:55:04;;;;;;;12.00;4.90;;;;;;;;;;4947058;28;20046;-51
2023/05/18 05:57:32;;;;;;;14.23;4.72;;;;;;;;;;4947082;28;20046;-51
2023/05/18 06:00:01;;;;;;;11.63;4.18;;;;;;;;;;4959373;28;20043;-51
2023/05/18 06:02:30;;;;;;;13.82;4.15;;;;;;;;;;4960675;28;20038;-54
2023/05/18 06:04:58;;;;;;;12.80;4.27;;;;;;;;;;4929858;28;20524;-51
2023/05/18 06:07:27;;;;;;;15.93;4.70;;;;;;;;;;4952107;28;20056;-51
2023/05/18 06:09:54;;;;;;;12.77;4.55;;;;;;;;;;4953303;28;20047;-50
2023/05/18 06:12:22;;;;;;;14.13;4.75;;;;;;;;;;4970010;28;20129;-49
2023/05/18 06:14:53;;;;;;;13.85;4.47;;;;;;;;;;4956748;28;20045;-50
2023/05/18 06:17:20;;;;;;;12.10;4.33;;;;;;;;;;4953664;28;20045;-54
2023/05/18 06:19:49;;;;;;;13.25;4.25;;;;;;;;;;4958719;28;20039;-49
2023/05/18 06:22:17;;;;;;;16.80;4.40;;;;;;;;;;4961426;28;20065;-51
2023/05/18 06:24:45;;;;;;;12.00;4.13;;;;;;;;;;4961778;28;20039;-47
2023/05/18 06:27:16;;;;;;;11.48;4.43;;;;;;;;;;4960806;28;20039;-51
2023/05/18 06:29:44;;;;;;;13.40;4.80;;;;;;;;;;4954267;28;20073;-52
2023/05/18 06:32:12;;;;;;;15.05;4.60;;;;;;;;;;4954619;28;20045;-50
2023/05/18 06:34:41;;;;;;;14.13;5.18;;;;;;;;;;4957672;28;20502;-54
2023/05/18 06:37:10;;;;;;;10.18;4.13;;;;;;;;;;4940562;28;20034;-53
2023/05/18 06:39:38;;;;;;;12.13;4.55;;;;;;;;;;4954507;28;20057;-51
2023/05/18 06:42:06;;;;;;;14.50;5.10;;;;;;;;;;4944805;28;20039;-51
2023/05/18 06:44:35;;;;;;;12.02;4.30;;;;;;;;;;4961874;28;20046;-48
2023/05/18 06:47:02;;;;;;;11.32;4.70;;;;;;;;;;4946745;28;20045;-52
2023/05/18 06:49:30;;;;;;;16.90;4.25;;;;;;;;;;4967503;28;20083;-51
2023/05/18 06:51:58;;;;;;;13.73;4.53;;;;;;;;;;4940926;28;20411;-48
2023/05/18 06:54:28;;;;;;;12.20;4.50;;;;;;;;;;4958417;28;20049;-53
2023/05/18 06:56:55;;;;;;;16.25;4.78;;;;;;;;;;4947027;28;20038;-53
2023/05/18 06:59:23;;;;;;;9.88;4.00;;;;;;;;;;4960877;28;20034;-52
2023/05/18 07:01:51;;;;;;;13.15;4.80;;;;;;;;;;4954285;28;20046;-48
2023/05/18 07:04:19;;;;;;;12.90;4.45;;;;;;;;;;4957490;28;20527;-51
2023/05/18 07:06:48;;;;;;;14.90;5.07;;;;;;;;;;4943629;28;20327;-50
2023/05/18 07:09:16;;;;;;;11.23;4.60;;;;;;;;;;4962838;28;20046;-51
2023/05/18 07:11:45;;;;;;;14.07;4.78;;;;;;;;;;4958502;28;20039;-52
2023/05/18 07:14:13;;;;;;;13.07;4.65;;;;;;;;;;4955244;28;20106;-52
2023/05/18 07:16:42;;;;;;;13.55;5.32;;;;;;;;;;4952498;28;20038;-52
2023/05/18 07:19:10;;;;;;;16.80;4.87;;;;;;;;;;4966694;28;20046;-53
2023/05/18 07:21:38;;;;;;;12.23;4.88;;;;;;;;;;4980742;28;20503;-53
2023/05/18 07:24:06;;;;;;;14.30;5.10;;;;;;;;;;4994608;28;20041;-52
2023/05/18 07:26:34;;;;;;;14.95;4.75;;;;;;;;;;4998578;28;20034;-53
2023/05/18 07:29:03;;;;;;;11.90;4.68;;;;;;;;;;4986098;28;20126;-53
2023/05/18 07:31:32;;;;;;;14.67;5.70;;;;;;;;;;5003529;28;20053;-48
2023/05/18 07:33:59;;;;;;;12.02;4.97;;;;;;;;;;4989518;28;20057;-50
2023/05/18 07:36:27;;;;;;;13.15;4.32;;;;;;;;;;4999498;28;20099;-52
2023/05/18 07:38:56;;;;;;;16.48;5.45;;;;;;;;;;4965225;28;20057;-51
2023/05/18 07:41:23;;;;;;;10.82;4.45;;;;;;;;;;5002266;28;20049;-53
2023/05/18 07:43:52;;;;;;;15.63;5.20;;;;;;;;;;4987086;28;20042;-52
2023/05/18 07:46:21;;;;;;;13.15;4.68;;;;;;;;;;5002377;28;20492;-52
2023/05/18 07:48:50;;;;;;;13.02;4.35;;;;;;;;;;4979177;28;20052;-52
2023/05/18 07:51:18;;;;;;;11.60;4.43;;;;;;;;;;4995880;28;20128;-52
2023/05/18 07:53:46;;;;;;;9.27;3.60;;;;;;;;;;4983450;28;20103;-53
2023/05/18 07:56:13;;;;;;;13.47;4.00;;;;;;;;;;4976538;28;20046;-55
2023/05/18 07:58:42;;;;;;;10.27;4.40;;;;;;;;;;4991876;28;20041;-55
2023/05/18 08:01:09;;;;;;;10.38;3.80;;;;;;;;;;4966957;28;20077;-55
2023/05/18 08:03:38;;;;;;;9.15;3.47;;;;;;;;;;4992185;28;20523;-54
2023/05/18 08:06:07;;;;;;;12.85;4.10;;;;;;;;;;5006114;28;20346;-50
2023/05/18 08:08:36;;;;;;;13.47;3.43;;;;;;;;;;4977468;28;20827;-51
2023/05/18 08:11:04;;;;;;;11.95;3.78;;;;;;;;;;4990023;28;20045;-51
2023/05/18 08:13:32;;;;;;;9.20;3.45;;;;;;;;;;4977958;28;20523;-55
2023/05/18 08:16:00;;;;;;;10.55;3.38;;;;;;;;;;4981151;28;20080;-54
2023/05/18 08:18:40;;;;;;;9.38;3.60;;;;;;;;;;4982130;28;20050;-56
2023/05/18 08:21:09;;;;;;;12.97;3.87;;;;;;;;;;4993449;28;20050;-57
2023/05/18 08:23:37;;;;;;;9.77;3.20;;;;;;;;;;4973603;28;20443;-57
2023/05/18 08:26:06;;;;;;;10.10;3.88;;;;;;;;;;4967072;28;20420;-57
2023/05/18 08:28:34;;;;;;;7.95;2.88;;;;;;;;;;4967629;28;20050;-57
2023/05/18 08:31:02;;;;;;;10.48;3.67;;;;;;;;;;4955222;28;20049;-57
2023/05/18 08:33:31;;;;;;;10.10;3.30;;;;;;;;;;4966913;28;20425;-57
2023/05/18 08:36:00;;;;;;;9.65;3.45;;;;;;;;;;4963703;28;20077;-57
2023/05/18 08:38:30;;;;;;;8.73;3.50;;;;;;;;;;4970159;28;20371;-57
2023/05/18 08:41:02;;;;;;;11.50;3.05;;;;;;;;;;5002101;28;20042;-57
2023/05/18 08:43:32;;;;;;;11.65;3.20;;;;;;;;;;4957876;28;20049;-54
2023/05/18 08:46:03;;;;;;;8.67;3.10;;;;;;;;;;4969653;28;20122;-53
2023/05/18 08:48:32;;;;;;;9.45;3.35;;;;;;;;;;4979524;28;20057;-52
2023/05/18 08:51:03;;;;;;;11.45;2.88;;;;;;;;;;4980570;28;20053;-55
2023/05/18 08:53:32;;;;;;;7.43;2.38;;;;;;;;;;4978298;28;20038;-55
2023/05/18 08:56:00;;;;;;;11.80;2.80;;;;;;;;;;4968289;28;20064;-55
2023/05/18 08:58:34;;;;;;;7.80;2.30;;;;;;;;;;4971673;28;20041;-56
2023/05/18 09:01:03;;;;;;;7.68;2.33;;;;;;;;;;4978295;28;20063;-53
2023/05/18 09:03:31;;;;;;;9.25;3.42;;;;;;;;;;4957002;28;20513;-55
2023/05/18 09:06:00;;;;;;;6.97;2.10;;;;;;;;;;4978314;28;20124;-52
2023/05/18 09:08:30;;;;;;;9.80;2.10;;;;;;;;;;4979989;28;20056;-53
2023/05/18 09:10:58;;;;;;;6.27;2.30;;;;;;;;;;4967560;28;20041;-54
2023/05/18 09:13:26;;;;;;;7.28;2.47;;;;;;;;;;4983905;28;20590;-55
2023/05/18 09:15:55;;;;;;;10.80;2.92;;;;;;;;;;4953896;28;20065;-54
2023/05/18 09:18:23;;;;;;;7.57;2.70;;;;;;;;;;4976264;28;20034;-54
2023/05/18 09:20:54;;;;;;;6.53;2.35;;;;;;;;;;4957399;28;20050;-54
2023/05/18 09:23:23;;;;;;;6.90;2.03;;;;;;;;;;5000755;28;20053;-51
2023/05/18 09:25:52;;;;;;;9.18;2.17;;;;;;;;;;4990069;28;20104;-52
2023/05/18 09:28:27;;;;;;;7.93;2.40;;;;;;;;;;4999924;28;20087;-56
2023/05/18 09:30:55;;;;;;;7.78;1.83;;;;;;;;;;4988503;28;20332;-52
2023/05/18 09:33:23;;;;;;;7.05;2.28;;;;;;;;;;4994407;28;20484;-55
2023/05/18 09:35:51;;;;;;;7.30;1.77;;;;;;;;;;4993867;28;20049;-54
2023/05/18 09:38:22;;;;;;;8.65;2.05;;;;;;;;;;5009540;28;20043;-54
2023/05/18 09:40:50;;;;;;;6.93;2.63;;;;;;;;;;4986580;28;20050;-55
2023/05/18 09:43:20;;;;;;;8.05;2.00;;;;;;;;;;5003354;28;20042;-55
2023/05/18 09:45:49;;;;;;;6.07;1.92;;;;;;;;;;5000444;28;20049;-53
2023/05/18 09:48:17;;;;;;;6.60;2.27;;;;;;;;;;4986838;28;20100;-55
2023/05/18 09:50:46;;;;;;;6.97;1.90;;;;;;;;;;5006053;28;20256;-53
2023/05/18 09:53:14;;;;;;;5.68;2.10;;;;;;;;;;4992163;28;20781;-54
2023/05/18 09:55:46;;;;;;;5.28;1.80;;;;;;;;;;4998631;28;20128;-50
2023/05/18 09:58:14;;;;;;;5.78;1.73;;;;;;;;;;5000506;28;20038;-55
2023/05/18 10:00:44;;;;;;;7.43;1.80;;;;;;;;;;4986643;28;20037;-56
2023/05/18 10:03:19;;;;;;;6.25;1.92;;;;;;;;;;5008803;28;20924;-53
2023/05/18 10:05:48;;;;;;;5.80;2.38;;;;;;;;;;4993826;28;20064;-55
2023/05/18 10:08:16;;;;;;;7.38;2.25;;;;;;;;;;4979975;28;20042;-56
2023/05/18 10:10:45;;;;;;;6.70;1.92;;;;;;;;;;4993484;28;20038;-51
2023/05/18 10:13:16;;;;;;;12.40;2.37;;;;;;;;;;4998945;28;20034;-54
2023/05/18 10:15:49;;;;;;;7.30;2.08;;;;;;;;;;4998205;28;20045;-52
2023/05/18 10:18:20;;;;;;;7.90;2.42;;;;;;;;;;4993482;28;20064;-56
2023/05/18 10:20:50;;;;;;;6.32;1.80;;;;;;;;;;4995498;28;20847;-54
2023/05/18 10:23:19;;;;;;;6.80;1.83;;;;;;;;;;4979531;28;20031;-51
2023/05/18 10:25:47;;;;;;;7.97;2.10;;;;;;;;;;4978440;28;20054;-56
2023/05/18 10:28:19;;;;;;;7.82;2.05;;;;;;;;;;4971072;28;20042;-53
2023/05/18 10:30:49;;;;;;;9.80;1.92;;;;;;;;;;4950685;28;20680;-54
2023/05/18 10:33:18;;;;;;;9.38;2.00;;;;;;;;;;4987674;28;20587;-53
2023/05/18 10:35:56;;;;;;;7.57;2.17;;;;;;;;;;4957619;28;20264;-52
2023/05/18 10:38:25;;;;;;;7.20;1.80;;;;;;;;;;4988540;28;20053;-52
2023/05/18 10:40:54;;;;;;;8.25;2.40;;;;;;;;;;4963487;28;20042;-52
2023/05/18 10:43:26;;;;;;;6.25;2.00;;;;;;;;;;4976440;28;20039;-55
2023/05/18 10:45:56;;;;;;;8.90;2.03;;;;;;;;;;4970445;28;20512;-52
2023/05/18 10:48:25;;;;;;;7.32;2.20;;;;;;;;;;4977718;28;20042;-49
2023/05/18 10:50:53;;;;;;;7.33;2.20;;;;;;;;;;4975895;28;20050;-53
2023/05/18 10:53:23;;;;;;;9.27;2.25;;;;;;;;;;4987601;28;20033;-52
2023/05/18 10:55:51;;;;;;;8.15;2.63;;;;;;;;;;4978168;28;20377;-51
2023/05/18 10:58:20;;;;;;;10.68;2.35;;;;;;;;;;4987032;28;20045;-52
2023/05/18 11:00:50;;;;;;;8.40;2.45;;;;;;;;;;4970673;28;20045;-53
2023/05/18 11:03:21;;;;;;;5.10;2.23;;;;;;;;;;4958261;28;20050;-53
2023/05/18 11:05:49;;;;;;;8.00;2.70;;;;;;;;;;4976993;28;20911;-58
2023/05/18 11:08:25;;;;;;;7.90;2.78;;;;;;;;;;4972147;28;20061;-52
2023/05/18 11:10:59;;;;;;;8.07;2.22;;;;;;;;;;4974485;28;20056;-53
2023/05/18 11:13:28;;;;;;;8.05;1.92;;;;;;;;;;4975987;28;20052;-51
2023/05/18 11:16:07;;;;;;;8.13;2.60;;;;;;;;;;4973146;28;20050;-52
2023/05/18 11:18:37;;;;;;;9.30;2.25;;;;;;;;;;4974086;28;20040;-54
2023/05/18 11:21:18;;;;;;;7.47;2.40;;;;;;;;;;4969702;28;20445;-53
2023/05/18 11:24:01;;;;;;;7.50;2.63;;;;;;;;;;4993629;28;20050;-52
2023/05/18 11:26:30;;;;;;;6.22;2.10;;;;;;;;;;5001136;28;20492;-53
2023/05/18 11:28:58;;;;;;;8.67;2.10;;;;;;;;;;4988350;28;20057;-54
2023/05/18 11:31:43;;;;;;;8.10;2.25;;;;;;;;;;4997459;28;20431;-54
2023/05/18 11:34:29;;;;;;;8.40;2.00;;;;;;;;;;4990129;28;20077;-55
2023/05/18 11:36:59;;;;;;;5.10;2.10;;;;;;;;;;4989779;28;20554;-56
2023/05/18 11:39:27;;;;;;;6.15;1.95;;;;;;;;;;4992502;28;20048;-55
2023/05/18 11:42:02;;;;;;;9.30;2.53;;;;;;;;;;4995307;28;20045;-55
2023/05/18 11:44:31;;;;;;;5.53;1.70;;;;;;;;;;4995640;28;20048;-56
2023/05/18 11:47:03;;;;;;;8.60;2.20;;;;;;;;;;4997627;28;20041;-54
2023/05/18 11:49:31;;;;;;;5.75;1.58;;;;;;;;;;4996935;28;20050;-52
2023/05/18 11:52:05;;;;;;;7.00;2.30;;;;;;;;;;4993786;28;20049;-55
2023/05/18 11:54:39;;;;;;;5.40;2.10;;;;;;;;;;4994299;28;20034;-56
2023/05/18 11:57:07;;;;;;;7.30;2.28;;;;;;;;;;5000110;28;20060;-53
2023/05/18 11:59:38;;;;;;;8.30;2.08;;;;;;;;;;5006742;28;20160;-54
2023/05/18 12:02:06;;;;;;;5.55;2.03;;;;;;;;;;4976108;28;20408;-54
2023/05/18 12:04:36;;;;;;;7.13;1.58;;;;;;;;;;4958890;28;20118;-53
2023/05/18 12:07:06;;;;;;;5.90;2.20;;;;;;;;;;4992738;28;20111;-51
2023/05/18 12:09:34;;;;;;;6.20;2.40;;;;;;;;;;4992008;28;20715;-55
2023/05/18 12:12:02;;;;;;;7.28;2.20;;;;;;;;;;4995957;28;20045;-54
2023/05/18 12:14:36;;;;;;;7.22;2.20;;;;;;;;;;4999527;28;20034;-55
2023/05/18 12:17:04;;;;;;;9.85;2.33;;;;;;;;;;4986841;28;20042;-52
2023/05/18 12:19:36;;;;;;;7.17;2.60;;;;;;;;;;4995280;28;20045;-53
2023/05/18 12:22:08;;;;;;;6.80;2.20;;;;;;;;;;5002838;28;20053;-55
2023/05/18 12:24:36;;;;;;;6.78;1.73;;;;;;;;;;4995717;28;20080;-53
2023/05/18 12:27:05;;;;;;;7.25;1.95;;;;;;;;;;4987739;28;20068;-55
2023/05/18 12:29:38;;;;;;;5.75;1.95;;;;;;;;;;4986359;28;20052;-51
2023/05/18 12:32:07;;;;;;;6.30;2.30;;;;;;;;;;4984479;28;20052;-53
2023/05/18 12:34:34;;;;;;;6.10;2.20;;;;;;;;;;5001651;28;20550;-54
2023/05/18 12:37:02;;;;;;;5.03;1.65;;;;;;;;;;4982444;28;20044;-53
2023/05/18 12:39:31;;;;;;;5.35;1.75;;;;;;;;;;4995856;28;20089;-56
2023/05/18 12:42:09;;;;;;;7.43;2.10;;;;;;;;;;4977605;28;20050;-54
2023/05/18 12:44:38;;;;;;;5.37;2.00;;;;;;;;;;4992160;28;20057;-56
2023/05/18 12:47:05;;;;;;;6.30;2.30;;;;;;;;;;4979534;28;20099;-55
2023/05/18 12:49:37;;;;;;;6.75;2.00;;;;;;;;;;4981837;28;20030;-54
2023/05/18 12:52:08;;;;;;;4.63;1.40;;;;;;;;;;4980001;28;20045;-56
2023/05/18 12:54:48;;;;;;;10.30;2.30;;;;;;;;;;4984438;28;20042;-53
2023/05/18 12:57:19;;;;;;;7.43;1.97;;;;;;;;;;4992809;28;20045;-55
2023/05/18 12:59:47;;;;;;;7.38;1.67;;;;;;;;;;4998105;28;20057;-52
2023/05/18 13:02:26;;;;;;;5.43;1.63;;;;;;;;;;4981122;28;20042;-55
2023/05/18 13:05:01;;;;;;;5.97;1.80;;;;;;;;;;4970048;28;20056;-54
2023/05/18 13:07:29;;;;;;;5.30;1.65;;;;;;;;;;4979908;28;20083;-54
2023/05/18 13:10:01;;;;;;;5.30;1.90;;;;;;;;;;4975477;28;20659;-56
2023/05/18 13:12:36;;;;;;;8.27;2.50;;;;;;;;;;4985770;28;20046;-53
2023/05/18 13:15:10;;;;;;;8.77;2.15;;;;;;;;;;4974142;28;20054;-55
2023/05/18 13:17:47;;;;;;;5.65;2.20;;;;;;;;;;4978940;28;20057;-56
2023/05/18 13:20:16;;;;;;;7.78;2.15;;;;;;;;;;4991922;28;20077;-52
2023/05/18 13:22:44;;;;;;;5.53;1.57;;;;;;;;;;4972493;28;21172;-54
2023/05/18 13:25:14;;;;;;;5.45;1.85;;;;;;;;;;4988430;28;20545;-52
2023/05/18 13:27:41;;;;;;;6.47;1.90;;;;;;;;;;4973181;28;20033;-54
2023/05/18 13:30:10;;;;;;;5.18;1.63;;;;;;;;;;4986193;28;20803;-55
2023/05/18 13:32:37;;;;;;;4.97;1.55;;;;;;;;;;4972359;28;20080;-53
2023/05/18 13:35:05;;;;;;;5.93;1.63;;;;;;;;;;4976322;28;20496;-55
2023/05/18 13:37:33;;;;;;;4.75;1.63;;;;;;;;;;4978875;28;20480;-53
2023/05/18 13:40:01;;;;;;;7.20;2.00;;;;;;;;;;4980279;28;20519;-56
2023/05/18 13:42:31;;;;;;;7.00;2.05;;;;;;;;;;4973382;28;20049;-54
2023/05/18 13:45:00;;;;;;;7.60;1.75;;;;;;;;;;4958663;28;20049;-56
2023/05/18 13:47:27;;;;;;;5.70;1.97;;;;;;;;;;4988154;28;20495;-57
2023/05/18 13:49:55;;;;;;;5.03;1.60;;;;;;;;;;4968436;28;20378;-57
2023/05/18 13:52:23;;;;;;;6.82;1.77;;;;;;;;;;4986058;28;20049;-57
2023/05/18 13:54:50;;;;;;;5.28;1.77;;;;;;;;;;4958446;28;20053;-57
2023/05/18 13:57:18;;;;;;;6.18;2.00;;;;;;;;;;4983182;28;20442;-56
2023/05/18 13:59:48;;;;;;;6.90;1.67;;;;;;;;;;4965268;28;21011;-55
2023/05/18 14:02:16;;;;;;;4.95;1.90;;;;;;;;;;4972737;28;20971;-56
2023/05/18 14:04:44;;;;;;;6.80;2.03;;;;;;;;;;4979829;28;20061;-57
2023/05/18 14:07:12;;;;;;;6.97;1.70;;;;;;;;;;4972882;28;20486;-55
2023/05/18 14:09:41;;;;;;;6.10;2.15;;;;;;;;;;4988415;28;20056;-56
2023/05/18 14:12:11;;;;;;;6.97;2.17;;;;;;;;;;4978175;28;20503;-54
2023/05/18 14:14:41;;;;;;;5.97;2.25;;;;;;;;;;4953353;28;20045;-54
2023/05/18 14:17:12;;;;;;;5.90;1.85;;;;;;;;;;4942054;28;20427;-55
2023/05/18 14:19:41;;;;;;;9.15;2.35;;;;;;;;;;4984555;28;20037;-56
2023/05/18 14:22:08;;;;;;;6.85;2.63;;;;;;;;;;4968881;28;20750;-55
2023/05/18 14:24:36;;;;;;;4.77;1.60;;;;;;;;;;4977487;28;20060;-56
2023/05/18 14:27:04;;;;;;;6.13;2.00;;;;;;;;;;4971651;28;20506;-52
2023/05/18 14:29:32;;;;;;;7.10;1.70;;;;;;;;;;4989001;28;20029;-55
2023/05/18 14:32:02;;;;;;;8.10;1.85;;;;;;;;;;4967940;28;20053;-57
2023/05/18 14:34:31;;;;;;;5.95;2.00;;;;;;;;;;4979542;28;20057;-56
2023/05/18 14:36:59;;;;;;;5.53;2.10;;;;;;;;;;4973099;28;20075;-57
2023/05/18 14:39:27;;;;;;;5.28;1.83;;;;;;;;;;4985954;28;20505;-54
2023/05/18 14:41:54;;;;;;;6.03;2.00;;;;;;;;;;4980227;28;20140;-54
2023/05/18 14:44:22;;;;;;;5.60;1.83;;;;;;;;;;4976804;28;20053;-53
2023/05/18 14:46:51;;;;;;;5.70;1.85;;;;;;;;;;4955306;28;20045;-54
2023/05/18 14:49:20;;;;;;;7.10;2.43;;;;;;;;;;4995776;28;20034;-58